Time;durP1;ratioP1;P1;durP2;ratioP2;P2;SDS_P1;SDS_P2;PMS_P1;PMS_P2;Temp;Humidity;BMP_temperature;BMP_pressure;BME280_temperature;BME280_humidity;BME280_pressure;Samples;Min_cycle;Max_cycle;Signal;HPM_P1;HPM_P2
2021/09/30 00:01:52;;;;;;;1.30;0.80;;;;;;;7.27;81.65;96604.53;5038373;28;20177;-77
2021/09/30 00:04:18;;;;;;;2.93;0.80;;;;;;;7.36;81.50;96603.91;5071905;28;20184;-76
2021/09/30 00:06:43;;;;;;;1.57;0.90;;;;;;;7.29;81.36;96600.06;5054262;28;20213;-78
2021/09/30 00:09:08;;;;;;;4.97;0.87;;;;;;;7.22;81.83;96602.22;5071800;28;20189;-76
2021/09/30 00:11:37;;;;;;;4.57;1.40;;;;;;;7.18;81.80;96611.13;5036712;28;20200;-77
2021/09/30 00:35:53;;;;;;;2.13;0.87;;;;;;;6.96;82.17;96614.25;5068782;28;20194;-78
2021/09/30 00:46:28;;;;;;;4.17;1.10;;;;;;;6.96;82.12;96618.59;5050445;28;20722;-77
2021/09/30 00:49:06;;;;;;;2.27;0.80;;;;;;;6.92;82.36;96617.16;5059012;28;20181;-77
2021/09/30 01:40:09;;;;;;;1.67;0.90;;;;;;;6.67;83.51;96647.09;5026309;28;20221;-78
2021/09/30 01:59:21;;;;;;;1.57;1.10;;;;;;;6.56;84.17;96653.88;5018452;28;20644;-78
2021/09/30 02:25:50;;;;;;;2.37;1.17;;;;;;;6.32;85.10;96654.47;5054068;28;20193;-75
2021/09/30 02:39:51;;;;;;;4.10;1.60;;;;;;;6.24;85.59;96654.09;5057948;28;20216;-77
2021/09/30 02:58:55;;;;;;;3.23;1.27;;;;;;;6.12;86.26;96654.88;5056703;28;20314;-77
2021/09/30 03:01:22;;;;;;;6.23;1.20;;;;;;;6.10;86.21;96652.38;5037376;28;20263;-77
2021/09/30 03:03:48;;;;;;;4.73;1.43;;;;;;;6.09;86.21;96649.88;5052572;28;20181;-77
2021/09/30 03:06:14;;;;;;;2.77;1.10;;;;;;;6.09;86.34;96649.88;5038825;28;20228;-77
2021/09/30 03:08:45;;;;;;;4.37;1.63;;;;;;;6.11;86.16;96650.63;5038315;28;20663;-77
2021/09/30 03:11:12;;;;;;;3.40;1.40;;;;;;;6.15;85.89;96654.66;5039120;28;20276;-76
2021/09/30 03:13:39;;;;;;;4.43;1.50;;;;;;;6.13;86.07;96649.63;5037391;28;20177;-78
2021/09/30 03:16:49;;;;;;;5.03;1.57;;;;;;;6.05;86.11;96654.41;5055124;28;20250;-77
2021/09/30 03:19:01;;;;;;;2.73;1.37;;;;;;;6.03;86.08;96651.09;5053017;28;20196;-78
2021/09/30 03:24:15;;;;;;;1.83;1.07;;;;;;;5.97;86.55;96651.47;5056672;28;20208;-77
2021/09/30 03:26:42;;;;;;;3.37;1.07;;;;;;;5.95;87.01;96659.28;5036971;28;20263;-76
2021/09/30 03:29:07;;;;;;;5.50;1.13;;;;;;;5.94;86.59;96661.97;5036934;28;20193;-77
2021/09/30 03:31:33;;;;;;;2.20;1.30;;;;;;;5.96;86.25;96663.53;5071646;28;20185;-77
2021/09/30 03:34:02;;;;;;;1.43;1.10;;;;;;;5.92;86.52;96664.63;5053409;28;20189;-76
2021/09/30 03:36:28;;;;;;;6.17;1.40;;;;;;;5.90;86.86;96661.31;5036775;28;20205;-77
2021/09/30 03:38:53;;;;;;;3.63;1.70;;;;;;;5.94;86.74;96667.94;5054335;28;20189;-77
2021/09/30 03:41:19;;;;;;;4.13;1.40;;;;;;;5.95;86.60;96664.44;5054268;28;20563;-77
2021/09/30 03:43:44;;;;;;;4.10;1.67;;;;;;;5.89;86.71;96664.78;5053015;28;20192;-75
2021/09/30 03:46:10;;;;;;;2.63;1.27;;;;;;;5.88;86.74;96667.44;5053425;28;20196;-77
2021/09/30 03:48:35;;;;;;;3.03;1.60;;;;;;;5.88;86.84;96663.13;5053533;28;20181;-77
2021/09/30 03:53:39;;;;;;;6.67;1.50;;;;;;;5.86;86.99;96662.38;5054679;28;20189;-76
2021/09/30 04:01:17;;;;;;;4.70;1.60;;;;;;;5.87;86.60;96665.78;5070980;28;20250;-76
2021/09/30 04:03:43;;;;;;;2.17;1.30;;;;;;;5.84;86.72;96677.13;5020222;28;20641;-77
2021/09/30 04:06:08;;;;;;;7.87;1.40;;;;;;;5.83;86.87;96666.88;5036585;28;20211;-77
2021/09/30 04:08:35;;;;;;;2.97;1.03;;;;;;;5.76;87.01;96669.00;5030606;28;20186;-77
2021/09/30 04:11:00;;;;;;;3.63;1.37;;;;;;;5.79;87.38;96668.00;5053770;28;20189;-76
2021/09/30 04:13:25;;;;;;;1.70;1.30;;;;;;;5.72;87.18;96669.28;5053810;28;20185;-77
2021/09/30 04:15:51;;;;;;;3.63;1.43;;;;;;;5.76;87.41;96663.84;5074562;28;20181;-77
2021/09/30 04:18:17;;;;;;;3.33;1.30;;;;;;;5.79;86.83;96665.41;5042000;28;20205;-78
2021/09/30 04:20:43;;;;;;;1.60;1.30;;;;;;;5.81;87.02;96671.31;5041713;28;20185;-77
2021/09/30 04:23:08;;;;;;;8.37;1.67;;;;;;;5.75;86.78;96666.53;5076514;28;20242;-77
2021/09/30 04:25:33;;;;;;;4.77;1.43;;;;;;;5.80;86.70;96672.22;5041216;28;20173;-77
2021/09/30 04:27:59;;;;;;;4.57;1.30;;;;;;;5.82;86.60;96671.22;5041323;28;20216;-76
2021/09/30 04:30:24;;;;;;;6.30;1.50;;;;;;;5.76;86.63;96671.59;5058651;28;20297;-78
2021/09/30 04:32:49;;;;;;;5.37;1.30;;;;;;;5.78;86.35;96669.75;5060385;28;20192;-77
2021/09/30 04:35:15;;;;;;;2.57;1.43;;;;;;;5.77;86.36;96664.69;5068159;28;20189;-76
2021/09/30 04:37:40;;;;;;;2.67;1.40;;;;;;;5.78;86.83;96676.66;5057218;28;20200;-76
2021/09/30 04:40:07;;;;;;;3.10;1.43;;;;;;;5.81;86.76;96676.47;5056777;28;20181;-76
2021/09/30 04:42:33;;;;;;;6.77;1.50;;;;;;;5.77;86.22;96675.00;5040100;28;20204;-76
2021/09/30 04:44:58;;;;;;;5.97;1.70;;;;;;;5.71;86.79;96675.34;5056489;28;20189;-77
2021/09/30 04:47:23;;;;;;;4.73;1.90;;;;;;;5.69;87.01;96686.56;5040322;28;20220;-77
2021/09/30 04:49:49;;;;;;;2.80;1.50;;;;;;;5.77;86.24;96680.97;5057621;28;20541;-78
2021/09/30 04:52:14;;;;;;;5.63;1.73;;;;;;;5.78;86.61;96680.06;5058007;28;20238;-78
2021/09/30 04:54:39;;;;;;;7.23;1.87;;;;;;;5.71;86.64;96689.06;5039981;28;20184;-78
2021/09/30 04:57:05;;;;;;;4.63;1.60;;;;;;;5.75;86.46;96687.97;5040769;28;20560;-77
2021/09/30 04:59:30;;;;;;;4.73;1.80;;;;;;;5.67;86.81;96682.44;5057456;28;20185;-78
2021/09/30 05:01:56;;;;;;;4.77;1.60;;;;;;;5.71;86.99;96680.50;5040524;28;20184;-77
2021/09/30 05:04:21;;;;;;;6.00;1.90;;;;;;;5.74;86.27;96683.72;5056803;28;20184;-77
2021/09/30 05:06:46;;;;;;;4.10;1.83;;;;;;;5.69;86.57;96688.31;5057045;28;20207;-79
2021/09/30 05:09:13;;;;;;;6.33;1.30;;;;;;;5.59;86.62;96688.03;5057082;28;20185;-78
2021/09/30 05:11:46;;;;;;;2.80;1.57;;;;;;;5.52;87.16;96691.06;5057246;28;20189;-78
2021/09/30 05:14:12;;;;;;;3.67;1.50;;;;;;;5.54;86.97;96697.78;5057010;28;20644;-79
2021/09/30 05:16:37;;;;;;;4.50;1.60;;;;;;;5.69;86.84;96696.06;5058045;28;20255;-78
2021/09/30 05:19:02;;;;;;;3.37;1.40;;;;;;;5.61;86.93;96696.50;5057690;28;20227;-78
2021/09/30 05:21:28;;;;;;;3.43;1.20;;;;;;;5.58;86.57;96693.28;5056974;28;20606;-77
2021/09/30 05:23:53;;;;;;;1.87;1.10;;;;;;;5.57;86.52;96695.03;5076616;28;20209;-78
2021/09/30 05:26:19;;;;;;;6.33;1.30;;;;;;;5.56;86.39;96700.25;5057546;28;20217;-78
2021/09/30 05:28:44;;;;;;;5.10;1.30;;;;;;;5.63;86.29;96698.97;5076257;28;20302;-80
2021/09/30 05:31:10;;;;;;;4.57;1.70;;;;;;;5.73;86.51;96702.69;5058564;28;20193;-79
2021/09/30 05:33:35;;;;;;;6.03;1.90;;;;;;;5.71;86.11;96704.53;5048058;28;20265;-79
2021/09/30 05:36:02;;;;;;;1.87;1.30;;;;;;;5.69;86.27;96702.03;5057321;28;20189;-78
2021/09/30 05:38:28;;;;;;;7.37;1.53;;;;;;;5.65;86.10;96704.88;5055895;28;20193;-79
2021/09/30 05:40:54;;;;;;;5.77;1.50;;;;;;;5.66;86.24;96707.38;5053357;28;20231;-78
2021/09/30 05:43:32;;;;;;;3.47;1.50;;;;;;;5.69;86.12;96708.94;5068104;28;20189;-80
2021/09/30 05:45:58;;;;;;;3.87;1.63;;;;;;;5.82;85.58;96706.47;5051108;28;20200;-78
2021/09/30 05:48:24;;;;;;;4.97;1.20;;;;;;;5.73;85.80;96707.00;5049710;28;20645;-77
2021/09/30 05:50:49;;;;;;;2.97;1.00;;;;;;;5.76;85.67;96705.09;5054193;28;20230;-78
2021/09/30 05:53:15;;;;;;;4.63;1.20;;;;;;;5.71;85.89;96695.97;5038407;28;20177;-79
2021/09/30 05:55:40;;;;;;;5.67;1.63;;;;;;;5.74;85.74;96704.34;5039492;28;20180;-79
2021/09/30 05:58:05;;;;;;;1.20;1.10;;;;;;;5.79;85.64;96702.34;5040128;28;20672;-79
2021/09/30 06:13:44;;;;;;;5.97;1.30;;;;;;;5.99;85.43;96716.66;5036496;28;20189;-79
2021/09/30 06:16:14;;;;;;;2.63;1.60;;;;;;;6.07;85.49;96718.78;5021518;28;20177;-79
2021/09/30 06:18:39;;;;;;;8.13;1.43;;;;;;;6.08;85.13;96720.44;5042924;28;20193;-77
2021/09/30 06:21:04;;;;;;;4.43;1.30;;;;;;;6.15;85.13;96716.56;5048992;28;20181;-78
2021/09/30 06:23:30;;;;;;;5.00;1.30;;;;;;;6.18;85.20;96718.94;5037478;28;20193;-77
2021/09/30 06:25:55;;;;;;;2.77;1.10;;;;;;;6.25;84.60;96722.81;5037948;28;20204;-78
2021/09/30 06:28:20;;;;;;;2.47;1.10;;;;;;;6.23;85.02;96719.53;5052966;28;20181;-77
2021/09/30 06:30:46;;;;;;;1.57;1.00;;;;;;;6.31;84.83;96727.63;5043550;28;20178;-79
2021/09/30 06:33:11;;;;;;;3.53;1.30;;;;;;;6.34;84.79;96727.44;5050381;28;20197;-78
2021/09/30 06:35:36;;;;;;;6.17;1.37;;;;;;;6.40;84.85;96727.06;5050873;28;20185;-79
2021/09/30 06:38:02;;;;;;;4.30;1.40;;;;;;;6.51;84.46;96727.22;5066309;28;20196;-79
2021/09/30 06:40:29;;;;;;;1.57;1.13;;;;;;;6.62;83.93;96731.72;5061056;28;20195;-79
2021/09/30 06:42:54;;;;;;;3.80;1.40;;;;;;;6.68;83.56;96733.13;5058800;28;20297;-79
2021/09/30 06:45:19;;;;;;;3.10;1.30;;;;;;;6.74;83.46;96741.31;5042302;28;20288;-78
2021/09/30 06:47:45;;;;;;;7.33;1.43;;;;;;;6.82;83.45;96743.44;5044110;28;20213;-78
2021/09/30 06:50:12;;;;;;;2.77;1.00;;;;;;;6.80;83.50;96745.25;5043673;28;20255;-78
2021/09/30 06:52:37;;;;;;;2.90;1.60;;;;;;;6.91;83.22;96748.03;5060562;28;20174;-79
2021/09/30 06:55:04;;;;;;;5.00;1.37;;;;;;;7.01;82.96;96745.69;5044324;28;20253;-78
2021/09/30 06:57:29;;;;;;;4.20;1.30;;;;;;;7.05;82.50;96747.97;5044858;28;20209;-78
2021/09/30 07:00:06;;;;;;;6.97;1.23;;;;;;;7.17;82.35;96754.13;5044649;28;20170;-79
2021/09/30 07:02:31;;;;;;;6.10;1.10;;;;;;;7.26;82.13;96763.06;5045975;28;20192;-77
2021/09/30 07:04:57;;;;;;;5.50;0.80;;;;;;;7.29;81.77;96755.09;5043612;28;20181;-78
2021/09/30 07:07:22;;;;;;;3.53;1.20;;;;;;;7.35;81.61;96757.31;5029253;28;20225;-78
2021/09/30 07:09:48;;;;;;;2.87;1.23;;;;;;;7.35;81.43;96758.13;5061521;28;20174;-78
2021/09/30 07:12:13;;;;;;;4.07;0.90;;;;;;;7.50;80.81;96758.06;5048283;28;20184;-78
2021/09/30 07:14:42;;;;;;;2.63;0.90;;;;;;;7.65;80.48;96765.66;5046948;28;20683;-78
2021/09/30 07:17:07;;;;;;;3.70;0.87;;;;;;;7.71;80.29;96759.25;5072148;28;20223;-80
2021/09/30 07:19:35;;;;;;;5.10;1.20;;;;;;;7.74;78.18;96768.56;5073357;28;20649;-80
2021/09/30 07:22:02;;;;;;;2.87;1.10;;;;;;;7.84;78.13;96769.59;5056180;28;20201;-80
2021/09/30 07:24:27;;;;;;;2.70;1.00;;;;;;;7.97;77.99;96767.88;5074009;28;20195;-79
2021/09/30 07:26:52;;;;;;;3.53;1.50;;;;;;;7.94;78.07;96773.25;5056621;28;20216;-79
2021/09/30 07:29:18;;;;;;;8.20;1.63;;;;;;;7.93;78.16;96767.25;5074276;28;20549;-78
2021/09/30 07:31:43;;;;;;;3.63;0.90;;;;;;;8.02;78.05;96773.56;5056585;28;20668;-81
2021/09/30 07:34:11;;;;;;;3.43;1.00;;;;;;;8.08;77.31;96780.09;5057402;28;20595;-79
2021/09/30 07:36:41;;;;;;;4.27;1.20;;;;;;;8.13;77.85;96776.28;5042477;28;20708;-80
2021/09/30 07:39:07;;;;;;;1.97;0.90;;;;;;;8.27;77.81;96782.28;5058124;28;20531;-80
2021/09/30 07:41:32;;;;;;;1.17;0.73;;;;;;;8.42;77.25;96786.47;5072376;28;20184;-79
2021/09/30 07:43:57;;;;;;;4.87;0.93;;;;;;;8.51;76.58;96785.84;5043684;28;20652;-79
2021/09/30 07:46:23;;;;;;;1.20;0.80;;;;;;;8.52;75.86;96787.50;5045492;28;20216;-79
2021/09/30 07:48:48;;;;;;;5.17;1.37;;;;;;;8.55;76.14;96787.25;5044316;28;20660;-80
2021/09/30 07:51:13;;;;;;;3.13;1.10;;;;;;;8.59;75.76;96785.31;5056253;28;20181;-80
2021/09/30 07:53:39;;;;;;;3.00;1.13;;;;;;;8.68;75.81;96785.50;5037414;28;20744;-80
2021/09/30 07:56:04;;;;;;;4.23;0.93;;;;;;;8.70;74.86;96781.03;5036026;28;20173;-80
2021/09/30 07:58:30;;;;;;;1.37;0.70;;;;;;;8.73;74.45;96775.66;5037224;28;20658;-79
2021/09/30 08:00:55;;;;;;;3.90;0.80;;;;;;;8.82;74.50;96773.34;5036735;28;20189;-80
2021/09/30 08:03:21;;;;;;;1.93;1.00;;;;;;;8.91;74.02;96772.72;5038097;28;20642;-80
2021/09/30 08:05:46;;;;;;;4.43;0.93;;;;;;;8.89;72.28;96774.59;5039483;28;20227;-79
2021/09/30 08:08:12;;;;;;;4.03;1.13;;;;;;;8.99;72.64;96775.59;5055390;28;20205;-79
2021/09/30 08:10:39;;;;;;;5.97;1.10;;;;;;;9.17;70.12;96779.47;5047854;28;20177;-79
2021/09/30 08:13:04;;;;;;;4.17;1.10;;;;;;;9.36;70.58;96773.78;5075577;28;20161;-80
2021/09/30 08:15:30;;;;;;;3.73;0.90;;;;;;;9.44;69.23;96781.84;5065573;28;20181;-80
2021/09/30 08:17:56;;;;;;;3.73;1.33;;;;;;;9.61;69.28;96778.03;5052332;28;20200;-81
2021/09/30 08:20:22;;;;;;;1.53;0.77;;;;;;;9.67;68.36;96782.78;5042177;28;20213;-81
2021/09/30 08:22:48;;;;;;;1.57;0.80;;;;;;;9.74;69.11;96784.00;5058783;28;20188;-81
2021/09/30 08:25:13;;;;;;;3.40;0.93;;;;;;;9.92;69.64;96771.44;5059845;28;20265;-80
2021/09/30 08:27:38;;;;;;;3.00;1.10;;;;;;;10.06;68.95;96770.41;5041316;28;20240;-80
2021/09/30 08:30:04;;;;;;;4.60;0.80;;;;;;;10.16;67.32;96771.41;5039401;28;20190;-80
2021/09/30 08:32:30;;;;;;;3.07;0.90;;;;;;;10.45;67.47;96780.44;5039895;28;20636;-81
2021/09/30 08:34:55;;;;;;;2.87;1.30;;;;;;;10.50;65.38;96780.06;5073845;28;20185;-80
2021/09/30 08:37:20;;;;;;;3.70;0.80;;;;;;;10.55;64.63;96780.56;5056671;28;20248;-81
2021/09/30 08:39:46;;;;;;;3.77;1.30;;;;;;;10.84;64.25;96767.91;5056482;28;20268;-80
2021/09/30 08:42:11;;;;;;;5.27;0.87;;;;;;;10.94;64.40;96771.44;5037523;28;20190;-80
2021/09/30 08:44:36;;;;;;;2.67;0.73;;;;;;;10.65;62.75;96765.91;5036895;28;20186;-81
2021/09/30 08:47:03;;;;;;;4.17;0.80;;;;;;;10.67;61.60;96765.78;5020328;28;20292;-81
2021/09/30 08:49:29;;;;;;;5.17;0.90;;;;;;;10.89;61.03;96776.19;5037658;28;20182;-80
2021/09/30 08:51:54;;;;;;;4.10;0.57;;;;;;;10.76;59.88;96772.88;5039714;28;20188;-81
2021/09/30 08:54:20;;;;;;;3.17;0.73;;;;;;;11.04;60.89;96772.41;5036142;28;20207;-79
2021/09/30 08:56:45;;;;;;;1.40;0.50;;;;;;;10.75;57.65;96771.22;5039288;28;20213;-80
2021/09/30 08:59:17;;;;;;;3.43;1.20;;;;;;;11.24;58.87;96775.19;5060079;28;20696;-79
2021/09/30 09:01:45;;;;;;;3.30;0.70;;;;;;;11.17;56.82;96774.00;5055726;28;20168;-77
2021/09/30 09:04:19;;;;;;;3.03;0.80;;;;;;;11.21;55.77;96772.81;5058555;28;20181;-80
2021/09/30 09:06:46;;;;;;;2.87;0.73;;;;;;;11.73;55.24;96768.63;5043422;28;20243;-79
2021/09/30 09:09:20;;;;;;;3.97;1.13;;;;;;;12.15;55.44;96770.34;5046437;28;20174;-78
2021/09/30 09:11:45;;;;;;;4.73;0.80;;;;;;;12.03;54.99;96780.97;5045464;28;20193;-79
2021/09/30 09:14:11;;;;;;;5.70;0.90;;;;;;;12.02;54.59;96774.94;5078298;28;20268;-80
2021/09/30 09:16:36;;;;;;;4.33;0.80;;;;;;;11.87;55.71;96761.38;5062004;28;20230;-79
2021/09/30 09:19:02;;;;;;;3.70;0.80;;;;;;;11.63;55.03;96769.38;5045633;28;20196;-80
2021/09/30 09:21:27;;;;;;;4.63;0.80;;;;;;;11.19;54.82;96759.13;5080586;28;20177;-78
2021/09/30 09:23:59;;;;;;;3.07;0.67;;;;;;;11.58;55.96;96766.34;5078812;28;20255;-80
2021/09/30 09:26:31;;;;;;;3.17;0.70;;;;;;;11.42;55.36;96752.91;5046416;28;20197;-79
2021/09/30 09:29:03;;;;;;;3.20;0.63;;;;;;;11.46;54.03;96759.50;5062592;28;20275;-78
2021/09/30 09:31:30;;;;;;;5.00;0.70;;;;;;;11.66;53.43;96765.72;5083074;28;20761;-77
2021/09/30 09:33:56;;;;;;;4.30;0.87;;;;;;;11.40;52.58;96770.41;5044176;28;20189;-79
2021/09/30 09:36:26;;;;;;;2.33;0.90;;;;;;;11.64;54.67;96765.00;5058173;28;20189;-79
2021/09/30 09:38:54;;;;;;;3.00;0.53;;;;;;;11.84;52.54;96760.81;5077216;28;20622;-78
2021/09/30 09:41:33;;;;;;;2.97;0.40;;;;;;;11.73;49.22;96764.25;5058504;28;20188;-81
2021/09/30 09:44:00;;;;;;;6.10;1.03;;;;;;;11.72;50.55;96761.78;5058836;28;20612;-80
2021/09/30 09:46:32;;;;;;;4.27;0.70;;;;;;;11.77;51.07;96750.06;5059528;28;20208;-79
2021/09/30 09:49:05;;;;;;;1.90;0.50;;;;;;;11.86;48.98;96762.34;5081662;28;20173;-79
2021/09/30 09:51:39;;;;;;;3.57;0.70;;;;;;;11.89;50.64;96753.44;5086298;28;20181;-78
2021/09/30 09:54:13;;;;;;;2.63;0.70;;;;;;;11.59;49.84;96751.56;5060830;28;20169;-78
2021/09/30 09:56:39;;;;;;;1.00;0.47;;;;;;;11.52;50.41;96748.63;5061703;28;20215;-78
2021/09/30 09:59:04;;;;;;;3.03;0.70;;;;;;;11.60;51.17;96754.03;5062246;28;20177;-81
2021/09/30 10:01:43;;;;;;;1.60;0.60;;;;;;;11.60;51.29;96746.22;5044781;28;20189;-78
2021/09/30 10:04:10;;;;;;;2.47;0.63;;;;;;;11.33;51.26;96745.84;5062566;28;20185;-80
2021/09/30 10:06:37;;;;;;;1.23;0.33;;;;;;;11.44;50.36;96740.59;5067183;28;20233;-78
2021/09/30 10:09:05;;;;;;;0.40;0.40;;;;;;;11.57;47.92;96738.69;5077198;28;20193;-80
2021/09/30 10:11:30;;;;;;;2.97;0.63;;;;;;;11.63;49.53;96735.56;5056026;28;20177;-80
2021/09/30 10:13:58;;;;;;;1.27;0.70;;;;;;;11.57;47.67;96727.41;5047414;28;20183;-80
2021/09/30 10:16:25;;;;;;;5.63;0.77;;;;;;;11.55;48.60;96727.53;5056149;28;20196;-82
2021/09/30 10:18:52;;;;;;;2.23;0.60;;;;;;;11.52;51.19;96732.19;5058375;28;20173;-81
2021/09/30 10:21:18;;;;;;;2.07;0.70;;;;;;;11.27;49.54;96730.72;5045572;28;20189;-78
2021/09/30 10:23:49;;;;;;;3.37;0.53;;;;;;;11.14;50.51;96730.06;5041029;28;20177;-79
2021/09/30 10:26:16;;;;;;;2.37;0.63;;;;;;;11.37;50.19;96721.22;5056561;28;20197;-78
2021/09/30 10:28:44;;;;;;;2.63;1.10;;;;;;;11.66;50.69;96723.25;5053081;28;20208;-80
2021/09/30 10:31:25;;;;;;;3.03;0.80;;;;;;;12.02;51.09;96729.84;5054090;28;20209;-80
2021/09/30 10:33:52;;;;;;;3.53;1.00;;;;;;;12.33;49.79;96728.09;5037068;28;20193;-79
2021/09/30 10:36:46;;;;;;;2.83;0.70;;;;;;;12.39;48.74;96731.00;5036657;28;20275;-79
2021/09/30 10:39:23;;;;;;;2.33;0.93;;;;;;;12.36;48.68;96720.00;5038021;28;20200;-79
2021/09/30 10:41:51;;;;;;;2.73;0.60;;;;;;;12.59;49.33;96726.69;5015785;28;20180;-78
2021/09/30 10:44:20;;;;;;;3.73;0.87;;;;;;;12.67;48.18;96723.44;5045957;28;20208;-78
2021/09/30 10:46:47;;;;;;;1.87;0.50;;;;;;;12.70;47.25;96720.56;5045389;28;20208;-78
2021/09/30 10:49:31;;;;;;;4.23;0.77;;;;;;;12.73;48.22;96715.94;5058954;28;20247;-78
2021/09/30 10:52:18;;;;;;;2.13;0.50;;;;;;;12.74;47.67;96720.19;5041065;28;20177;-78
2021/09/30 10:54:50;;;;;;;3.30;0.77;;;;;;;12.85;46.93;96715.81;5073845;28;20181;-77
2021/09/30 10:57:35;;;;;;;1.43;0.60;;;;;;;13.07;44.21;96710.38;5070720;28;20262;-77
2021/09/30 11:00:03;;;;;;;2.63;0.70;;;;;;;12.40;45.59;96713.59;5066285;28;20184;-78
2021/09/30 11:02:28;;;;;;;2.67;0.83;;;;;;;12.48;45.10;96709.38;5055408;28;20195;-79
2021/09/30 11:05:09;;;;;;;2.23;0.60;;;;;;;12.71;45.50;96710.00;5055985;28;20552;-78
2021/09/30 11:07:38;;;;;;;1.17;0.80;;;;;;;12.85;44.03;96714.03;5056172;28;20216;-77
2021/09/30 11:10:19;;;;;;;2.73;0.80;;;;;;;12.73;45.22;96708.09;5056227;28;20181;-78
2021/09/30 11:13:16;;;;;;;4.17;0.73;;;;;;;12.48;45.50;96709.38;5037970;28;20275;-78
2021/09/30 11:16:16;;;;;;;1.13;0.50;;;;;;;12.87;44.23;96695.66;5059217;28;20177;-77
2021/09/30 11:18:46;;;;;;;1.13;0.53;;;;;;;13.11;45.51;96692.69;5039442;28;20200;-77
2021/09/30 11:21:37;;;;;;;1.47;0.60;;;;;;;13.37;46.66;96696.44;5040768;28;20544;-77
2021/09/30 11:24:04;;;;;;;1.93;0.63;;;;;;;13.50;46.06;96696.16;5059030;28;20177;-79
2021/09/30 11:26:33;;;;;;;4.03;0.90;;;;;;;13.76;46.09;96702.47;5038665;28;20216;-78
2021/09/30 11:29:26;;;;;;;1.40;0.50;;;;;;;13.96;45.81;96694.59;5054596;28;20342;-78
2021/09/30 11:31:58;;;;;;;3.30;0.70;;;;;;;13.98;44.01;96692.69;5067115;28;20176;-78
2021/09/30 11:34:32;;;;;;;1.73;0.60;;;;;;;13.83;44.38;96689.69;5050672;28;20273;-77
2021/09/30 11:37:00;;;;;;;4.40;0.80;;;;;;;13.83;44.35;96681.84;5063269;28;20196;-77
2021/09/30 11:39:32;;;;;;;2.93;0.53;;;;;;;14.07;44.56;96684.84;5032832;28;20180;-79
2021/09/30 11:41:58;;;;;;;2.87;0.53;;;;;;;14.00;44.22;96682.91;5070386;28;20184;-78
2021/09/30 11:44:23;;;;;;;2.47;0.83;;;;;;;13.92;41.10;96673.19;5057291;28;20728;-79
2021/09/30 11:46:54;;;;;;;3.77;1.07;;;;;;;13.37;44.75;96672.13;5042299;28;20579;-79
2021/09/30 11:49:19;;;;;;;2.83;0.77;;;;;;;13.67;44.66;96669.34;5040044;28;20231;-78
2021/09/30 11:51:50;;;;;;;3.77;0.87;;;;;;;13.60;44.27;96665.66;5054733;28;20185;-82
2021/09/30 11:54:18;;;;;;;1.30;0.53;;;;;;;13.57;42.84;96671.16;5027671;28;20185;-80
2021/09/30 11:56:49;;;;;;;2.07;0.80;;;;;;;13.50;44.50;96662.22;5028001;28;20197;-80
2021/09/30 11:59:18;;;;;;;1.20;0.60;;;;;;;13.11;44.39;96664.00;5040024;28;20657;-77
2021/09/30 12:01:45;;;;;;;2.83;0.70;;;;;;;13.23;46.25;96649.88;5075893;28;20196;-77
2021/09/30 12:04:28;;;;;;;3.07;0.77;;;;;;;12.83;45.63;96648.19;5059848;28;20230;-79
2021/09/30 12:06:53;;;;;;;1.77;0.50;;;;;;;12.70;45.50;96652.78;5076464;28;20291;-78
2021/09/30 12:09:20;;;;;;;1.47;0.50;;;;;;;12.62;46.04;96640.44;5053471;28;20732;-78
2021/09/30 12:11:54;;;;;;;1.00;0.40;;;;;;;12.55;47.40;96641.94;5054966;28;20169;-78
2021/09/30 12:14:20;;;;;;;1.73;0.77;;;;;;;12.40;47.58;96643.25;5063513;28;20215;-76
2021/09/30 12:16:56;;;;;;;1.23;0.60;;;;;;;12.66;47.97;96641.84;5048696;28;20225;-77
2021/09/30 12:19:54;;;;;;;2.77;0.80;;;;;;;12.83;47.29;96635.16;5047417;28;20226;-78
2021/09/30 12:22:32;;;;;;;1.13;0.63;;;;;;;12.92;46.47;96634.34;5031627;28;20190;-77
2021/09/30 12:25:01;;;;;;;1.70;0.73;;;;;;;13.17;47.07;96632.97;5031234;28;20190;-78
2021/09/30 12:27:31;;;;;;;2.20;0.63;;;;;;;13.33;45.58;96622.81;5016027;28;20727;-78
2021/09/30 12:30:06;;;;;;;3.37;0.80;;;;;;;13.40;46.27;96622.28;5048711;28;20182;-77
2021/09/30 12:32:37;;;;;;;2.43;0.77;;;;;;;13.30;44.52;96620.50;5014678;28;20973;-77
2021/09/30 12:35:09;;;;;;;2.20;0.60;;;;;;;13.47;43.76;96613.75;5032473;28;20185;-78
2021/09/30 12:37:51;;;;;;;1.07;0.43;;;;;;;13.39;43.58;96618.84;5020052;28;20416;-78
2021/09/30 12:40:37;;;;;;;3.63;0.70;;;;;;;13.52;43.54;96608.97;5020003;28;20186;-78
2021/09/30 12:43:32;;;;;;;2.80;0.40;;;;;;;13.03;44.42;96602.91;5050025;28;20201;-77
2021/09/30 12:46:02;;;;;;;1.53;0.60;;;;;;;13.36;44.12;96607.88;4977781;28;20219;-79
2021/09/30 12:48:29;;;;;;;2.27;0.60;;;;;;;13.56;43.92;96612.09;4976325;28;20183;-78
2021/09/30 12:51:00;;;;;;;2.50;0.60;;;;;;;13.37;44.14;96607.75;4957246;28;20184;-78
2021/09/30 12:53:26;;;;;;;2.30;0.67;;;;;;;13.55;44.89;96605.25;4977783;28;20187;-77
2021/09/30 12:56:03;;;;;;;2.33;0.60;;;;;;;13.65;45.15;96594.78;4960599;28;20192;-78
2021/09/30 12:58:51;;;;;;;2.50;0.73;;;;;;;13.63;45.44;96600.16;4977519;28;20348;-79
2021/09/30 13:01:33;;;;;;;2.27;0.60;;;;;;;13.19;45.13;96591.09;4993226;28;20188;-78
2021/09/30 13:04:12;;;;;;;2.13;0.80;;;;;;;13.30;45.11;96589.19;4963418;28;20651;-79
2021/09/30 13:06:41;;;;;;;1.33;0.60;;;;;;;13.05;44.84;96585.34;4993735;28;20261;-78
2021/09/30 13:09:18;;;;;;;0.53;0.40;;;;;;;13.08;45.60;96581.66;4994368;28;20199;-78
2021/09/30 13:11:49;;;;;;;1.20;0.60;;;;;;;12.75;46.41;96580.25;4995606;28;20211;-77
2021/09/30 13:14:14;;;;;;;3.17;0.77;;;;;;;12.97;46.28;96571.34;4994430;28;20175;-78
2021/09/30 13:16:45;;;;;;;4.00;0.53;;;;;;;13.26;45.46;96579.19;4993086;28;20214;-78
2021/09/30 13:19:10;;;;;;;1.73;0.50;;;;;;;13.33;46.43;96580.25;4992195;28;20555;-76
2021/09/30 13:22:01;;;;;;;2.17;0.60;;;;;;;13.57;46.46;96578.03;5004136;28;20201;-76
2021/09/30 13:24:27;;;;;;;1.53;0.60;;;;;;;13.70;45.46;96571.69;5053555;28;20181;-76
2021/09/30 13:26:53;;;;;;;1.03;0.50;;;;;;;13.66;45.78;96573.75;5054890;28;20552;-77
2021/09/30 13:29:18;;;;;;;1.90;0.97;;;;;;;13.91;44.48;96571.47;5055109;28;20185;-76
2021/09/30 13:31:43;;;;;;;2.40;0.40;;;;;;;13.83;43.43;96572.19;5055457;28;20176;-76
2021/09/30 13:34:09;;;;;;;2.90;0.70;;;;;;;13.77;44.76;96568.34;5054593;28;20177;-77
2021/09/30 13:36:34;;;;;;;1.60;0.60;;;;;;;14.35;45.63;96572.53;5055072;28;20208;-76
2021/09/30 13:39:00;;;;;;;4.83;0.70;;;;;;;14.43;44.58;96573.44;5073294;28;20177;-77
2021/09/30 13:41:25;;;;;;;1.23;0.50;;;;;;;14.41;43.09;96572.78;5054775;28;20260;-77
2021/09/30 13:43:51;;;;;;;1.53;0.60;;;;;;;14.53;43.36;96564.75;5052738;28;20185;-77
2021/09/30 13:46:16;;;;;;;4.23;0.70;;;;;;;14.39;44.15;96561.63;5055303;28;20259;-77
2021/09/30 13:48:42;;;;;;;3.10;0.67;;;;;;;14.52;44.31;96566.53;5039254;28;20192;-76
2021/09/30 13:51:38;;;;;;;2.03;0.60;;;;;;;14.36;44.45;96559.31;5036813;28;20243;-77
2021/09/30 13:54:04;;;;;;;2.03;1.00;;;;;;;14.64;44.26;96548.84;5064980;28;20645;-77
2021/09/30 13:56:29;;;;;;;1.50;0.60;;;;;;;14.57;44.71;96545.16;5082871;28;20209;-77
2021/09/30 13:58:55;;;;;;;3.77;0.90;;;;;;;14.47;43.99;96549.66;5043917;28;20223;-78
2021/09/30 14:01:20;;;;;;;2.27;0.80;;;;;;;14.51;43.34;96545.78;5061229;28;20212;-77
2021/09/30 14:03:46;;;;;;;1.37;0.80;;;;;;;14.54;43.61;96546.28;5059727;28;20185;-78
2021/09/30 14:06:16;;;;;;;0.97;0.50;;;;;;;14.61;44.39;96534.28;5077048;28;20188;-76
2021/09/30 14:08:41;;;;;;;1.37;0.47;;;;;;;14.51;42.70;96541.38;5054632;28;20639;-77
2021/09/30 14:11:08;;;;;;;4.37;1.57;;;;;;;14.32;43.96;96534.44;5055369;28;20221;-77
2021/09/30 14:13:34;;;;;;;1.77;0.80;;;;;;;14.30;43.62;96530.31;5043231;28;20246;-77
2021/09/30 14:15:59;;;;;;;2.27;0.70;;;;;;;14.25;44.77;96536.00;5060550;28;20632;-77
2021/09/30 14:18:24;;;;;;;1.47;0.50;;;;;;;14.20;44.19;96525.16;5073122;28;20213;-77
2021/09/30 14:20:51;;;;;;;3.13;0.50;;;;;;;14.34;44.39;96529.06;5061550;28;20193;-77
2021/09/30 14:23:17;;;;;;;1.90;0.60;;;;;;;14.31;44.75;96530.19;5046172;28;20914;-77
2021/09/30 14:25:42;;;;;;;2.77;0.60;;;;;;;14.14;45.39;96528.38;5055271;28;20185;-77
2021/09/30 14:28:08;;;;;;;2.80;0.60;;;;;;;14.44;45.49;96525.44;5043465;28;20619;-77
2021/09/30 14:30:33;;;;;;;1.23;0.60;;;;;;;14.21;45.31;96525.97;5037863;28;20184;-76
2021/09/30 14:32:58;;;;;;;2.53;0.70;;;;;;;14.44;45.41;96525.44;5053040;28;20188;-77
2021/09/30 14:35:24;;;;;;;0.87;0.60;;;;;;;14.20;44.35;96517.31;5070428;28;20235;-77